sensor_id;sensor_type;location;lat;lon;timestamp;temperature;humidity
12276;DHT22;6200;48.144;11.424;2024-02-23T00:01:26;7.90;99.90
12276;DHT22;6200;48.144;11.424;2024-02-23T00:03:52;7.60;99.90
12276;DHT22;6200;48.144;11.424;2024-02-23T00:06:18;7.90;99.90
12276;DHT22;6200;48.144;11.424;2024-02-23T00:08:43;7.90;99.90
12276;DHT22;6200;48.144;11.424;2024-02-23T00:11:09;7.90;99.90
12276;DHT22;6200;48.144;11.424;2024-02-23T00:13:35;7.80;99.90
12276;DHT22;6200;48.144;11.424;2024-02-23T00:16:01;7.80;99.90
12276;DHT22;6200;48.144;11.424;2024-02-23T00:18:26;7.80;99.90
12276;DHT22;6200;48.144;11.424;2024-02-23T00:20:52;7.80;99.90
12276;DHT22;6200;48.144;11.424;2024-02-23T00:23:17;7.80;99.90
12276;DHT22;6200;48.144;11.424;2024-02-23T00:25:44;7.80;99.90
12276;DHT22;6200;48.144;11.424;2024-02-23T00:28:10;7.80;99.90
12276;DHT22;6200;48.144;11.424;2024-02-23T00:30:35;7.80;99.90
12276;DHT22;6200;48.144;11.424;2024-02-23T00:33:01;7.70;99.90
12276;DHT22;6200;48.144;11.424;2024-02-23T00:35:27;7.80;99.90
12276;DHT22;6200;48.144;11.424;2024-02-23T00:37:52;7.70;99.90
12276;DHT22;6200;48.144;11.424;2024-02-23T00:40:18;7.70;99.90
12276;DHT22;6200;48.144;11.424;2024-02-23T00:42:43;7.70;99.90
12276;DHT22;6200;48.144;11.424;2024-02-23T00:45:09;7.70;99.90
12276;DHT22;6200;48.144;11.424;2024-02-23T00:47:34;7.70;99.90
12276;DHT22;6200;48.144;11.424;2024-02-23T00:50:01;7.70;99.90
12276;DHT22;6200;48.144;11.424;2024-02-23T00:52:28;7.70;99.90
12276;DHT22;6200;48.144;11.424;2024-02-23T00:54:53;7.70;99.90
12276;DHT22;6200;48.144;11.424;2024-02-23T00:57:19;7.70;99.90
12276;DHT22;6200;48.144;11.424;2024-02-23T00:59:51;7.70;99.90
12276;DHT22;6200;48.144;11.424;2024-02-23T01:02:16;7.70;99.90
12276;DHT22;6200;48.144;11.424;2024-02-23T01:04:42;7.60;99.90
12276;DHT22;6200;48.144;11.424;2024-02-23T01:07:07;7.60;99.90
12276;DHT22;6200;48.144;11.424;2024-02-23T01:09:33;7.60;99.90
12276;DHT22;6200;48.144;11.424;2024-02-23T01:11:59;7.60;99.90
12276;DHT22;6200;48.144;11.424;2024-02-23T01:14:25;7.60;99.90
12276;DHT22;6200;48.144;11.424;2024-02-23T01:16:50;7.60;99.90
12276;DHT22;6200;48.144;11.424;2024-02-23T01:19:16;7.70;99.90
12276;DHT22;6200;48.144;11.424;2024-02-23T01:21:41;7.70;99.90
12276;DHT22;6200;48.144;11.424;2024-02-23T01:24:07;7.60;99.90
12276;DHT22;6200;48.144;11.424;2024-02-23T01:26:33;7.60;99.90
12276;DHT22;6200;48.144;11.424;2024-02-23T01:28:58;7.60;99.90
12276;DHT22;6200;48.144;11.424;2024-02-23T01:31:24;7.60;99.90
12276;DHT22;6200;48.144;11.424;2024-02-23T01:33:49;7.60;99.90
12276;DHT22;6200;48.144;11.424;2024-02-23T01:36:15;7.60;99.90
12276;DHT22;6200;48.144;11.424;2024-02-23T01:38:41;7.60;99.90
12276;DHT22;6200;48.144;11.424;2024-02-23T01:41:08;7.60;99.90
12276;DHT22;6200;48.144;11.424;2024-02-23T01:43:33;7.60;99.90
12276;DHT22;6200;48.144;11.424;2024-02-23T01:45:59;7.50;99.90
12276;DHT22;6200;48.144;11.424;2024-02-23T01:48:25;7.40;99.90
12276;DHT22;6200;48.144;11.424;2024-02-23T01:50:54;7.40;99.90
12276;DHT22;6200;48.144;11.424;2024-02-23T01:53:20;7.40;99.90
12276;DHT22;6200;48.144;11.424;2024-02-23T01:55:47;7.40;99.90
12276;DHT22;6200;48.144;11.424;2024-02-23T01:58:13;7.40;99.90
12276;DHT22;6200;48.144;11.424;2024-02-23T02:00:39;7.30;99.90
12276;DHT22;6200;48.144;11.424;2024-02-23T02:03:05;7.40;99.90
12276;DHT22;6200;48.144;11.424;2024-02-23T02:05:30;7.30;99.90
12276;DHT22;6200;48.144;11.424;2024-02-23T02:07:56;7.30;99.90
12276;DHT22;6200;48.144;11.424;2024-02-23T02:10:25;7.30;99.90
12276;DHT22;6200;48.144;11.424;2024-02-23T02:12:52;7.30;99.90
12276;DHT22;6200;48.144;11.424;2024-02-23T02:15:17;7.30;99.90
12276;DHT22;6200;48.144;11.424;2024-02-23T02:17:43;7.30;99.90
12276;DHT22;6200;48.144;11.424;2024-02-23T02:20:11;7.20;99.90
12276;DHT22;6200;48.144;11.424;2024-02-23T02:22:37;7.20;99.90
12276;DHT22;6200;48.144;11.424;2024-02-23T02:25:03;7.20;99.90
12276;DHT22;6200;48.144;11.424;2024-02-23T02:27:29;7.20;99.90
12276;DHT22;6200;48.144;11.424;2024-02-23T02:29:55;7.20;99.90
12276;DHT22;6200;48.144;11.424;2024-02-23T02:32:20;7.20;99.90
12276;DHT22;6200;48.144;11.424;2024-02-23T02:34:46;7.20;99.90
12276;DHT22;6200;48.144;11.424;2024-02-23T02:37:11;7.20;99.90
12276;DHT22;6200;48.144;11.424;2024-02-23T02:39:37;7.20;99.90
12276;DHT22;6200;48.144;11.424;2024-02-23T02:42:02;7.10;99.90
12276;DHT22;6200;48.144;11.424;2024-02-23T02:44:28;7.20;99.90
12276;DHT22;6200;48.144;11.424;2024-02-23T02:46:59;7.20;99.90
12276;DHT22;6200;48.144;11.424;2024-02-23T02:49:24;7.20;99.90
12276;DHT22;6200;48.144;11.424;2024-02-23T02:51:50;7.10;99.90
12276;DHT22;6200;48.144;11.424;2024-02-23T02:54:16;7.10;99.90
12276;DHT22;6200;48.144;11.424;2024-02-23T02:56:42;7.10;99.90
12276;DHT22;6200;48.144;11.424;2024-02-23T02:59:09;7.00;99.90
12276;DHT22;6200;48.144;11.424;2024-02-23T03:01:35;7.10;99.90
12276;DHT22;6200;48.144;11.424;2024-02-23T03:04:01;7.00;99.90
12276;DHT22;6200;48.144;11.424;2024-02-23T03:06:26;7.00;99.90
12276;DHT22;6200;48.144;11.424;2024-02-23T03:08:52;7.00;99.90
12276;DHT22;6200;48.144;11.424;2024-02-23T03:11:17;7.00;99.90
12276;DHT22;6200;48.144;11.424;2024-02-23T03:13:43;7.00;99.90
12276;DHT22;6200;48.144;11.424;2024-02-23T03:16:18;7.00;99.90
12276;DHT22;6200;48.144;11.424;2024-02-23T03:18:44;7.00;99.90
12276;DHT22;6200;48.144;11.424;2024-02-23T03:21:10;7.00;99.90
12276;DHT22;6200;48.144;11.424;2024-02-23T03:23:36;7.00;99.90
12276;DHT22;6200;48.144;11.424;2024-02-23T03:26:02;7.00;99.90
12276;DHT22;6200;48.144;11.424;2024-02-23T03:28:28;7.00;99.90
12276;DHT22;6200;48.144;11.424;2024-02-23T03:30:54;7.00;99.90
12276;DHT22;6200;48.144;11.424;2024-02-23T03:33:20;7.00;99.90
12276;DHT22;6200;48.144;11.424;2024-02-23T03:35:45;7.00;99.90
12276;DHT22;6200;48.144;11.424;2024-02-23T03:38:11;7.00;99.90
12276;DHT22;6200;48.144;11.424;2024-02-23T03:40:36;6.90;99.90
12276;DHT22;6200;48.144;11.424;2024-02-23T03:43:02;6.90;99.90
12276;DHT22;6200;48.144;11.424;2024-02-23T03:45:28;6.80;99.90
12276;DHT22;6200;48.144;11.424;2024-02-23T03:47:53;6.80;99.90
12276;DHT22;6200;48.144;11.424;2024-02-23T03:50:19;6.80;99.90
12276;DHT22;6200;48.144;11.424;2024-02-23T03:52:45;6.80;99.90
12276;DHT22;6200;48.144;11.424;2024-02-23T03:55:10;6.80;99.90
12276;DHT22;6200;48.144;11.424;2024-02-23T03:57:37;6.70;99.90
12276;DHT22;6200;48.144;11.424;2024-02-23T04:00:03;6.70;99.90
12276;DHT22;6200;48.144;11.424;2024-02-23T04:02:28;6.70;99.90
12276;DHT22;6200;48.144;11.424;2024-02-23T04:04:54;6.60;99.90
12276;DHT22;6200;48.144;11.424;2024-02-23T04:07:20;6.60;99.90
12276;DHT22;6200;48.144;11.424;2024-02-23T04:09:45;6.60;99.90
12276;DHT22;6200;48.144;11.424;2024-02-23T04:12:18;6.60;99.90
12276;DHT22;6200;48.144;11.424;2024-02-23T04:14:43;6.60;99.90
12276;DHT22;6200;48.144;11.424;2024-02-23T04:17:09;6.60;99.90
12276;DHT22;6200;48.144;11.424;2024-02-23T04:19:35;6.60;99.90
12276;DHT22;6200;48.144;11.424;2024-02-23T04:22:00;6.50;99.90
12276;DHT22;6200;48.144;11.424;2024-02-23T04:24:26;6.50;99.90
12276;DHT22;6200;48.144;11.424;2024-02-23T04:26:51;6.50;99.90
12276;DHT22;6200;48.144;11.424;2024-02-23T04:29:17;6.50;99.90
12276;DHT22;6200;48.144;11.424;2024-02-23T04:31:42;6.40;99.90
12276;DHT22;6200;48.144;11.424;2024-02-23T04:34:08;6.40;99.90
12276;DHT22;6200;48.144;11.424;2024-02-23T04:36:33;6.40;99.90
12276;DHT22;6200;48.144;11.424;2024-02-23T04:38:59;6.30;99.90
12276;DHT22;6200;48.144;11.424;2024-02-23T04:41:24;6.30;99.90
12276;DHT22;6200;48.144;11.424;2024-02-23T04:43:50;6.30;99.90
12276;DHT22;6200;48.144;11.424;2024-02-23T04:46:16;6.30;99.90
12276;DHT22;6200;48.144;11.424;2024-02-23T04:48:41;6.30;99.90
12276;DHT22;6200;48.144;11.424;2024-02-23T04:51:07;6.30;99.90
12276;DHT22;6200;48.144;11.424;2024-02-23T04:53:38;6.20;99.90
12276;DHT22;6200;48.144;11.424;2024-02-23T04:56:05;6.20;99.90
12276;DHT22;6200;48.144;11.424;2024-02-23T04:58:30;6.10;99.90
12276;DHT22;6200;48.144;11.424;2024-02-23T05:00:56;6.10;99.90
12276;DHT22;6200;48.144;11.424;2024-02-23T05:03:21;6.00;99.90
12276;DHT22;6200;48.144;11.424;2024-02-23T05:05:47;6.00;99.90
12276;DHT22;6200;48.144;11.424;2024-02-23T05:08:12;6.00;99.90
12276;DHT22;6200;48.144;11.424;2024-02-23T05:10:38;5.90;99.90
12276;DHT22;6200;48.144;11.424;2024-02-23T05:13:03;5.90;99.90
12276;DHT22;6200;48.144;11.424;2024-02-23T05:15:29;5.90;99.90
12276;DHT22;6200;48.144;11.424;2024-02-23T05:17:54;5.90;99.90
12276;DHT22;6200;48.144;11.424;2024-02-23T05:20:20;5.90;99.90
12276;DHT22;6200;48.144;11.424;2024-02-23T05:22:46;5.80;99.90
12276;DHT22;6200;48.144;11.424;2024-02-23T05:25:11;5.80;99.90
12276;DHT22;6200;48.144;11.424;2024-02-23T05:27:37;5.80;99.90
12276;DHT22;6200;48.144;11.424;2024-02-23T05:30:03;6.60;99.90
12276;DHT22;6200;48.144;11.424;2024-02-23T05:32:28;5.80;99.90
12276;DHT22;6200;48.144;11.424;2024-02-23T05:34:54;5.80;99.90
12276;DHT22;6200;48.144;11.424;2024-02-23T05:37:22;5.80;99.90
12276;DHT22;6200;48.144;11.424;2024-02-23T05:39:47;5.80;99.90
12276;DHT22;6200;48.144;11.424;2024-02-23T05:42:13;5.70;99.90
12276;DHT22;6200;48.144;11.424;2024-02-23T05:44:38;5.70;99.90
12276;DHT22;6200;48.144;11.424;2024-02-23T05:47:04;5.70;99.90
12276;DHT22;6200;48.144;11.424;2024-02-23T05:49:30;5.70;99.90
12276;DHT22;6200;48.144;11.424;2024-02-23T05:51:55;5.60;99.90
12276;DHT22;6200;48.144;11.424;2024-02-23T05:54:21;5.60;99.90
12276;DHT22;6200;48.144;11.424;2024-02-23T05:56:47;5.60;99.90
12276;DHT22;6200;48.144;11.424;2024-02-23T05:59:13;5.60;99.90
12276;DHT22;6200;48.144;11.424;2024-02-23T06:01:38;5.60;99.90
12276;DHT22;6200;48.144;11.424;2024-02-23T06:04:04;5.60;99.90
12276;DHT22;6200;48.144;11.424;2024-02-23T06:06:29;5.60;99.90
12276;DHT22;6200;48.144;11.424;2024-02-23T06:08:55;5.60;99.90
12276;DHT22;6200;48.144;11.424;2024-02-23T06:11:20;5.60;99.90
12276;DHT22;6200;48.144;11.424;2024-02-23T06:13:46;5.60;99.90
12276;DHT22;6200;48.144;11.424;2024-02-23T06:16:12;5.60;99.90
12276;DHT22;6200;48.144;11.424;2024-02-23T06:18:38;5.70;99.90
12276;DHT22;6200;48.144;11.424;2024-02-23T06:21:16;5.70;99.90
12276;DHT22;6200;48.144;11.424;2024-02-23T06:23:43;5.70;99.90
12276;DHT22;6200;48.144;11.424;2024-02-23T06:26:08;5.70;99.90
12276;DHT22;6200;48.144;11.424;2024-02-23T06:28:34;5.70;99.90
12276;DHT22;6200;48.144;11.424;2024-02-23T06:31:00;5.70;99.90
12276;DHT22;6200;48.144;11.424;2024-02-23T06:33:25;5.70;99.90
12276;DHT22;6200;48.144;11.424;2024-02-23T06:35:51;5.80;99.90
12276;DHT22;6200;48.144;11.424;2024-02-23T06:38:18;5.80;99.90
12276;DHT22;6200;48.144;11.424;2024-02-23T06:40:43;5.80;99.90
12276;DHT22;6200;48.144;11.424;2024-02-23T06:43:09;5.80;99.90
12276;DHT22;6200;48.144;11.424;2024-02-23T06:45:34;5.80;99.90
12276;DHT22;6200;48.144;11.424;2024-02-23T06:48:00;5.80;99.90
12276;DHT22;6200;48.144;11.424;2024-02-23T06:50:25;5.70;99.90
12276;DHT22;6200;48.144;11.424;2024-02-23T06:52:51;5.70;99.90
12276;DHT22;6200;48.144;11.424;2024-02-23T06:55:16;5.70;99.90
12276;DHT22;6200;48.144;11.424;2024-02-23T06:57:43;5.60;99.90
12276;DHT22;6200;48.144;11.424;2024-02-23T07:00:08;5.60;99.90
12276;DHT22;6200;48.144;11.424;2024-02-23T07:02:34;5.60;99.90
12276;DHT22;6200;48.144;11.424;2024-02-23T07:05:02;5.60;99.90
12276;DHT22;6200;48.144;11.424;2024-02-23T07:07:30;5.60;99.90
12276;DHT22;6200;48.144;11.424;2024-02-23T07:09:56;5.60;99.90
12276;DHT22;6200;48.144;11.424;2024-02-23T07:12:21;5.60;99.90
12276;DHT22;6200;48.144;11.424;2024-02-23T07:14:48;5.60;99.90
12276;DHT22;6200;48.144;11.424;2024-02-23T07:17:17;5.50;99.90
12276;DHT22;6200;48.144;11.424;2024-02-23T07:19:42;5.60;99.90
12276;DHT22;6200;48.144;11.424;2024-02-23T07:22:08;5.60;99.90
12276;DHT22;6200;48.144;11.424;2024-02-23T07:24:33;5.60;99.90
12276;DHT22;6200;48.144;11.424;2024-02-23T07:26:59;5.60;99.90
12276;DHT22;6200;48.144;11.424;2024-02-23T07:29:25;5.60;99.90
12276;DHT22;6200;48.144;11.424;2024-02-23T07:31:50;5.60;99.90
12276;DHT22;6200;48.144;11.424;2024-02-23T07:34:16;5.60;99.90
12276;DHT22;6200;48.144;11.424;2024-02-23T07:36:41;5.50;99.90
12276;DHT22;6200;48.144;11.424;2024-02-23T07:39:08;5.50;99.90
12276;DHT22;6200;48.144;11.424;2024-02-23T07:41:33;5.50;99.90
12276;DHT22;6200;48.144;11.424;2024-02-23T07:43:59;5.50;99.90
12276;DHT22;6200;48.144;11.424;2024-02-23T07:46:25;5.50;99.90
12276;DHT22;6200;48.144;11.424;2024-02-23T07:48:50;5.50;99.90
12276;DHT22;6200;48.144;11.424;2024-02-23T07:51:16;5.50;99.90
12276;DHT22;6200;48.144;11.424;2024-02-23T07:53:41;5.50;99.90
12276;DHT22;6200;48.144;11.424;2024-02-23T07:56:10;5.50;99.90
12276;DHT22;6200;48.144;11.424;2024-02-23T07:58:35;5.50;99.90
12276;DHT22;6200;48.144;11.424;2024-02-23T08:01:01;5.50;99.90
12276;DHT22;6200;48.144;11.424;2024-02-23T08:03:27;5.60;99.90
12276;DHT22;6200;48.144;11.424;2024-02-23T08:05:52;5.50;99.90
12276;DHT22;6200;48.144;11.424;2024-02-23T08:08:18;5.50;99.90
12276;DHT22;6200;48.144;11.424;2024-02-23T08:10:44;5.50;99.90
12276;DHT22;6200;48.144;11.424;2024-02-23T08:13:09;5.50;99.90
12276;DHT22;6200;48.144;11.424;2024-02-23T08:15:36;5.50;99.90
12276;DHT22;6200;48.144;11.424;2024-02-23T08:18:01;5.50;99.90
12276;DHT22;6200;48.144;11.424;2024-02-23T08:20:27;5.50;99.90
12276;DHT22;6200;48.144;11.424;2024-02-23T08:22:52;5.50;99.90
12276;DHT22;6200;48.144;11.424;2024-02-23T08:25:18;5.50;99.90
12276;DHT22;6200;48.144;11.424;2024-02-23T08:27:43;5.60;99.90
12276;DHT22;6200;48.144;11.424;2024-02-23T08:30:09;5.60;99.90
12276;DHT22;6200;48.144;11.424;2024-02-23T08:32:36;5.70;99.90
12276;DHT22;6200;48.144;11.424;2024-02-23T08:35:02;5.80;99.90
12276;DHT22;6200;48.144;11.424;2024-02-23T08:37:28;5.90;99.90
12276;DHT22;6200;48.144;11.424;2024-02-23T08:39:53;6.00;99.90
12276;DHT22;6200;48.144;11.424;2024-02-23T08:42:19;6.10;99.90
12276;DHT22;6200;48.144;11.424;2024-02-23T08:44:45;6.20;99.90
12276;DHT22;6200;48.144;11.424;2024-02-23T08:47:10;6.30;99.90
12276;DHT22;6200;48.144;11.424;2024-02-23T08:49:37;6.40;99.90
12276;DHT22;6200;48.144;11.424;2024-02-23T08:52:03;6.40;99.90
12276;DHT22;6200;48.144;11.424;2024-02-23T08:54:29;6.50;99.90
12276;DHT22;6200;48.144;11.424;2024-02-23T08:56:54;6.60;99.90
12276;DHT22;6200;48.144;11.424;2024-02-23T08:59:20;6.60;99.90
12276;DHT22;6200;48.144;11.424;2024-02-23T09:01:46;6.60;99.90
12276;DHT22;6200;48.144;11.424;2024-02-23T09:04:13;6.60;99.90
12276;DHT22;6200;48.144;11.424;2024-02-23T09:06:38;6.60;99.90
12276;DHT22;6200;48.144;11.424;2024-02-23T09:09:04;6.60;99.90
12276;DHT22;6200;48.144;11.424;2024-02-23T09:11:29;6.60;99.90
12276;DHT22;6200;48.144;11.424;2024-02-23T09:13:55;6.50;99.90
12276;DHT22;6200;48.144;11.424;2024-02-23T09:16:20;6.60;99.90
12276;DHT22;6200;48.144;11.424;2024-02-23T09:18:48;6.60;99.90
12276;DHT22;6200;48.144;11.424;2024-02-23T09:21:14;6.60;99.90
12276;DHT22;6200;48.144;11.424;2024-02-23T09:23:40;6.60;99.90
12276;DHT22;6200;48.144;11.424;2024-02-23T09:26:09;6.60;99.90
12276;DHT22;6200;48.144;11.424;2024-02-23T09:28:38;6.50;99.90
12276;DHT22;6200;48.144;11.424;2024-02-23T09:31:06;7.10;99.90
12276;DHT22;6200;48.144;11.424;2024-02-23T09:33:32;6.50;99.90
12276;DHT22;6200;48.144;11.424;2024-02-23T09:35:57;6.50;99.90
12276;DHT22;6200;48.144;11.424;2024-02-23T09:38:24;6.50;99.90
12276;DHT22;6200;48.144;11.424;2024-02-23T09:40:53;6.60;99.90
12276;DHT22;6200;48.144;11.424;2024-02-23T09:43:21;6.60;99.90
12276;DHT22;6200;48.144;11.424;2024-02-23T09:45:50;6.60;99.90
12276;DHT22;6200;48.144;11.424;2024-02-23T09:48:18;6.60;99.90
12276;DHT22;6200;48.144;11.424;2024-02-23T09:50:45;6.60;99.90
12276;DHT22;6200;48.144;11.424;2024-02-23T09:53:11;6.50;99.90
12276;DHT22;6200;48.144;11.424;2024-02-23T09:55:38;6.30;99.90
12276;DHT22;6200;48.144;11.424;2024-02-23T09:58:04;6.20;99.90
12276;DHT22;6200;48.144;11.424;2024-02-23T10:00:32;6.20;99.90
12276;DHT22;6200;48.144;11.424;2024-02-23T10:02:58;6.10;99.90
12276;DHT22;6200;48.144;11.424;2024-02-23T10:05:31;6.10;99.90
12276;DHT22;6200;48.144;11.424;2024-02-23T10:07:59;6.10;99.90
12276;DHT22;6200;48.144;11.424;2024-02-23T10:10:33;6.10;99.90
12276;DHT22;6200;48.144;11.424;2024-02-23T10:12:59;6.20;99.90
12276;DHT22;6200;48.144;11.424;2024-02-23T10:15:25;6.20;99.90
12276;DHT22;6200;48.144;11.424;2024-02-23T10:17:51;6.30;99.90
12276;DHT22;6200;48.144;11.424;2024-02-23T10:20:17;6.30;99.90
12276;DHT22;6200;48.144;11.424;2024-02-23T10:22:43;6.30;99.90
12276;DHT22;6200;48.144;11.424;2024-02-23T10:25:09;6.40;99.90
12276;DHT22;6200;48.144;11.424;2024-02-23T10:27:34;6.50;99.90
12276;DHT22;6200;48.144;11.424;2024-02-23T10:30:00;6.50;99.90
12276;DHT22;6200;48.144;11.424;2024-02-23T10:32:29;6.60;99.90
12276;DHT22;6200;48.144;11.424;2024-02-23T10:34:59;6.60;99.90
12276;DHT22;6200;48.144;11.424;2024-02-23T10:37:26;6.80;99.90
12276;DHT22;6200;48.144;11.424;2024-02-23T10:39:57;6.80;99.90
12276;DHT22;6200;48.144;11.424;2024-02-23T10:42:24;6.90;99.90
12276;DHT22;6200;48.144;11.424;2024-02-23T10:44:52;7.00;99.90
12276;DHT22;6200;48.144;11.424;2024-02-23T10:47:20;7.10;99.90
12276;DHT22;6200;48.144;11.424;2024-02-23T10:49:47;7.10;99.90
12276;DHT22;6200;48.144;11.424;2024-02-23T10:52:13;7.10;99.90
12276;DHT22;6200;48.144;11.424;2024-02-23T10:54:40;7.00;99.90
12276;DHT22;6200;48.144;11.424;2024-02-23T10:57:06;7.10;99.90
12276;DHT22;6200;48.144;11.424;2024-02-23T10:59:32;7.00;99.90
12276;DHT22;6200;48.144;11.424;2024-02-23T11:02:00;6.90;99.90
12276;DHT22;6200;48.144;11.424;2024-02-23T11:04:26;6.80;99.90
12276;DHT22;6200;48.144;11.424;2024-02-23T11:06:54;6.70;99.90
12276;DHT22;6200;48.144;11.424;2024-02-23T11:09:24;6.70;99.90
12276;DHT22;6200;48.144;11.424;2024-02-23T11:11:57;6.70;99.90
12276;DHT22;6200;48.144;11.424;2024-02-23T11:14:36;6.60;99.90
12276;DHT22;6200;48.144;11.424;2024-02-23T11:17:03;6.50;99.90
12276;DHT22;6200;48.144;11.424;2024-02-23T11:19:35;6.30;99.90
12276;DHT22;6200;48.144;11.424;2024-02-23T11:22:02;6.30;99.90
12276;DHT22;6200;48.144;11.424;2024-02-23T11:24:32;6.30;99.90
12276;DHT22;6200;48.144;11.424;2024-02-23T11:27:01;6.30;99.90
12276;DHT22;6200;48.144;11.424;2024-02-23T11:29:33;6.30;99.90
12276;DHT22;6200;48.144;11.424;2024-02-23T11:32:00;6.30;99.90
12276;DHT22;6200;48.144;11.424;2024-02-23T11:34:30;6.20;99.90
12276;DHT22;6200;48.144;11.424;2024-02-23T11:36:56;6.20;99.90
12276;DHT22;6200;48.144;11.424;2024-02-23T11:39:23;6.20;99.90
12276;DHT22;6200;48.144;11.424;2024-02-23T11:41:50;6.20;99.90
12276;DHT22;6200;48.144;11.424;2024-02-23T11:44:16;6.20;99.90
12276;DHT22;6200;48.144;11.424;2024-02-23T11:46:44;6.20;99.90
12276;DHT22;6200;48.144;11.424;2024-02-23T11:49:12;6.20;99.90
12276;DHT22;6200;48.144;11.424;2024-02-23T11:51:37;6.20;99.90
12276;DHT22;6200;48.144;11.424;2024-02-23T11:54:03;7.50;99.90
12276;DHT22;6200;48.144;11.424;2024-02-23T11:56:29;5.90;99.90
12276;DHT22;6200;48.144;11.424;2024-02-23T11:58:55;5.90;99.90
12276;DHT22;6200;48.144;11.424;2024-02-23T12:01:21;5.80;99.90
12276;DHT22;6200;48.144;11.424;2024-02-23T12:03:47;5.80;99.90
12276;DHT22;6200;48.144;11.424;2024-02-23T12:06:14;5.80;99.90
12276;DHT22;6200;48.144;11.424;2024-02-23T12:08:41;5.90;99.90
12276;DHT22;6200;48.144;11.424;2024-02-23T12:11:08;5.90;99.90
12276;DHT22;6200;48.144;11.424;2024-02-23T12:13:34;5.80;99.90
12276;DHT22;6200;48.144;11.424;2024-02-23T12:16:00;5.80;99.90
12276;DHT22;6200;48.144;11.424;2024-02-23T12:18:26;5.70;99.90
12276;DHT22;6200;48.144;11.424;2024-02-23T12:21:03;5.70;99.90
12276;DHT22;6200;48.144;11.424;2024-02-23T12:23:43;5.60;99.90
12276;DHT22;6200;48.144;11.424;2024-02-23T12:26:10;5.50;99.90
12276;DHT22;6200;48.144;11.424;2024-02-23T12:28:36;5.50;99.90
12276;DHT22;6200;48.144;11.424;2024-02-23T12:31:03;5.50;99.90
12276;DHT22;6200;48.144;11.424;2024-02-23T12:33:33;5.60;99.90
12276;DHT22;6200;48.144;11.424;2024-02-23T12:36:00;5.50;99.90
12276;DHT22;6200;48.144;11.424;2024-02-23T12:38:26;5.50;99.90
12276;DHT22;6200;48.144;11.424;2024-02-23T12:40:52;5.50;99.90
12276;DHT22;6200;48.144;11.424;2024-02-23T12:43:18;5.60;99.90
12276;DHT22;6200;48.144;11.424;2024-02-23T12:45:47;5.60;99.90
12276;DHT22;6200;48.144;11.424;2024-02-23T12:48:18;5.60;99.90
12276;DHT22;6200;48.144;11.424;2024-02-23T12:50:44;5.50;99.90
12276;DHT22;6200;48.144;11.424;2024-02-23T12:53:34;5.50;99.90
12276;DHT22;6200;48.144;11.424;2024-02-23T12:56:05;5.50;99.90
12276;DHT22;6200;48.144;11.424;2024-02-23T12:58:38;5.50;99.90
12276;DHT22;6200;48.144;11.424;2024-02-23T13:01:04;5.40;99.90
12276;DHT22;6200;48.144;11.424;2024-02-23T13:03:31;5.40;99.90
12276;DHT22;6200;48.144;11.424;2024-02-23T13:05:57;5.40;99.90
12276;DHT22;6200;48.144;11.424;2024-02-23T13:08:24;5.50;99.90
12276;DHT22;6200;48.144;11.424;2024-02-23T13:10:50;5.50;99.90
12276;DHT22;6200;48.144;11.424;2024-02-23T13:13:16;5.60;99.90
12276;DHT22;6200;48.144;11.424;2024-02-23T13:15:43;5.60;99.90
12276;DHT22;6200;48.144;11.424;2024-02-23T13:18:08;5.60;99.90
12276;DHT22;6200;48.144;11.424;2024-02-23T13:20:35;5.60;99.90
12276;DHT22;6200;48.144;11.424;2024-02-23T13:23:00;5.60;99.90
12276;DHT22;6200;48.144;11.424;2024-02-23T13:25:27;5.60;99.90
12276;DHT22;6200;48.144;11.424;2024-02-23T13:27:53;5.60;99.90
12276;DHT22;6200;48.144;11.424;2024-02-23T13:30:19;5.50;99.90
12276;DHT22;6200;48.144;11.424;2024-02-23T13:32:45;5.50;99.90
12276;DHT22;6200;48.144;11.424;2024-02-23T13:35:10;5.50;99.90
12276;DHT22;6200;48.144;11.424;2024-02-23T13:37:36;5.50;99.90
12276;DHT22;6200;48.144;11.424;2024-02-23T13:40:01;5.50;99.90
12276;DHT22;6200;48.144;11.424;2024-02-23T13:42:28;5.40;99.90
12276;DHT22;6200;48.144;11.424;2024-02-23T13:44:54;5.40;99.90
12276;DHT22;6200;48.144;11.424;2024-02-23T13:47:20;5.40;99.90
12276;DHT22;6200;48.144;11.424;2024-02-23T13:49:45;5.40;99.90
12276;DHT22;6200;48.144;11.424;2024-02-23T13:52:11;5.40;99.90
12276;DHT22;6200;48.144;11.424;2024-02-23T13:54:36;5.40;99.90
12276;DHT22;6200;48.144;11.424;2024-02-23T13:57:02;5.40;99.90
12276;DHT22;6200;48.144;11.424;2024-02-23T13:59:27;5.40;99.90
12276;DHT22;6200;48.144;11.424;2024-02-23T14:01:53;5.30;99.90
12276;DHT22;6200;48.144;11.424;2024-02-23T14:04:18;5.40;99.90
12276;DHT22;6200;48.144;11.424;2024-02-23T14:06:44;5.40;99.90
12276;DHT22;6200;48.144;11.424;2024-02-23T14:09:09;5.40;99.90
12276;DHT22;6200;48.144;11.424;2024-02-23T14:11:35;5.30;99.90
12276;DHT22;6200;48.144;11.424;2024-02-23T14:14:01;5.20;99.90
12276;DHT22;6200;48.144;11.424;2024-02-23T14:16:28;5.20;99.90
12276;DHT22;6200;48.144;11.424;2024-02-23T14:18:54;5.20;99.90
12276;DHT22;6200;48.144;11.424;2024-02-23T14:21:19;5.20;99.90
12276;DHT22;6200;48.144;11.424;2024-02-23T14:23:46;5.20;99.90
12276;DHT22;6200;48.144;11.424;2024-02-23T14:26:12;5.20;99.90
12276;DHT22;6200;48.144;11.424;2024-02-23T14:28:38;5.20;99.90
12276;DHT22;6200;48.144;11.424;2024-02-23T14:31:04;5.20;99.90
12276;DHT22;6200;48.144;11.424;2024-02-23T14:33:29;5.20;99.90
12276;DHT22;6200;48.144;11.424;2024-02-23T14:35:55;5.20;99.90
12276;DHT22;6200;48.144;11.424;2024-02-23T14:38:21;5.20;99.90
12276;DHT22;6200;48.144;11.424;2024-02-23T14:40:46;5.10;99.90
12276;DHT22;6200;48.144;11.424;2024-02-23T14:43:12;5.10;99.90
12276;DHT22;6200;48.144;11.424;2024-02-23T14:45:37;5.10;99.90
12276;DHT22;6200;48.144;11.424;2024-02-23T14:48:03;5.20;99.90
12276;DHT22;6200;48.144;11.424;2024-02-23T14:50:29;5.10;99.90
12276;DHT22;6200;48.144;11.424;2024-02-23T14:52:54;5.10;99.90
12276;DHT22;6200;48.144;11.424;2024-02-23T14:55:20;5.10;99.90
12276;DHT22;6200;48.144;11.424;2024-02-23T14:57:46;5.10;99.90
12276;DHT22;6200;48.144;11.424;2024-02-23T15:00:13;5.10;99.90
12276;DHT22;6200;48.144;11.424;2024-02-23T15:02:39;5.10;99.90
12276;DHT22;6200;48.144;11.424;2024-02-23T15:05:05;5.10;99.90
12276;DHT22;6200;48.144;11.424;2024-02-23T15:07:31;5.10;99.90
12276;DHT22;6200;48.144;11.424;2024-02-23T15:09:57;5.10;99.90
12276;DHT22;6200;48.144;11.424;2024-02-23T15:12:23;5.10;99.90
12276;DHT22;6200;48.144;11.424;2024-02-23T15:14:50;5.00;99.90
12276;DHT22;6200;48.144;11.424;2024-02-23T15:17:16;5.00;99.90
12276;DHT22;6200;48.144;11.424;2024-02-23T15:19:41;5.00;99.90
12276;DHT22;6200;48.144;11.424;2024-02-23T15:22:07;5.00;99.90
12276;DHT22;6200;48.144;11.424;2024-02-23T15:24:34;5.00;99.90
12276;DHT22;6200;48.144;11.424;2024-02-23T15:27:00;5.00;99.90
12276;DHT22;6200;48.144;11.424;2024-02-23T15:29:25;5.00;99.90
12276;DHT22;6200;48.144;11.424;2024-02-23T15:31:51;4.90;99.90
12276;DHT22;6200;48.144;11.424;2024-02-23T15:34:17;5.00;99.90
12276;DHT22;6200;48.144;11.424;2024-02-23T15:36:42;5.00;99.90
12276;DHT22;6200;48.144;11.424;2024-02-23T15:39:08;5.00;99.90